NWWW

La Tontouta International Airport

Nouméa, New Caledonia
TAF NWWW 182300Z 1900/1924 12015KT 9999 SCT060 TEMPO 1900/1906 11020G30KT BECMG 1908/1910 VRB02KT BECMG 1922/1924 12010KT
Issued Valid From Valid To
Jan-18 @ 23:00 UTC
(4 hours ago)
Jan-19 @ 00:00 UTC
(3 hours ago)
Jan-20 @ 00:00 UTC
(in 21 hours)
Jan-19 @ 00:00 to Jan-19 @ 08:00
TAF NWWW 182300Z 1900/1924 12015KT 9999 SCT060
Wind Visibility Clouds
120° at 15 knots 10,000+ meters
  • Scattered at 6,000' AGL
Temporary Jan-19 @ 00:00 to Jan-19 @ 06:00
TEMPO 1900/1906 11020G30KT
Wind
110° at 20 knots
 Gusting to 30 knots
Becoming Jan-19 @ 08:00 to Jan-19 @ 22:00
BECMG 1908/1910 VRB02KT
Wind Visibility Clouds
Variable at 2 knots 10,000+ meters
  • Scattered at 6,000' AGL
Becoming Jan-19 @ 22:00 to Jan-20 @ 00:00
BECMG 1922/1924 12010KT
Wind Visibility Clouds
120° at 10 knots 10,000+ meters
  • Scattered at 6,000' AGL
TAF NWWW 182300Z 1900/1924 12015KT 9999 SCT060 TEMPO 1900/1906 11020G30KT BECMG 1908/1910 VRB02KT BECMG 1922/1924 12010KT
Issued Jan-18 @ 23:00 UTC
(4 hours ago)
Valid From Jan-19 @ 00:00 UTC
(3 hours ago)
Valid To Jan-20 @ 00:00 UTC
(in 21 hours)
Jan-19 @ 00:00 - Jan-19 @ 08:00
Wind Visibility
120° at 15 knots 10,000+ meters
Clouds
  • Scattered at 6,000' AGL
Temporary Jan-19 @ 00:00 - Jan-19 @ 06:00
Wind
110° at 20 knots
 Gusting to 30 knots
Becoming Jan-19 @ 08:00 - Jan-19 @ 22:00
Wind Visibility
Variable at 2 knots 10,000+ meters
Clouds
  • Scattered at 6,000' AGL
Becoming Jan-19 @ 22:00 - Jan-20 @ 00:00
Wind Visibility
120° at 10 knots 10,000+ meters
Clouds
  • Scattered at 6,000' AGL